createdAt,value
2018-09-13T00:00:52.065Z,10.27
2018-09-13T00:03:20.381Z,11.07
2018-09-13T00:05:48.680Z,9.20
2018-09-13T00:08:16.843Z,11.60
2018-09-13T00:10:45.019Z,10.00
2018-09-13T00:13:13.754Z,14.80
2018-09-13T00:15:41.953Z,13.47
2018-09-13T00:18:10.152Z,10.80
2018-09-13T00:20:38.631Z,9.40
2018-09-13T00:23:07.415Z,11.83
2018-09-13T00:25:35.612Z,9.17
2018-09-13T00:28:03.962Z,9.07
2018-09-13T00:30:32.173Z,10.80
2018-09-13T00:33:00.349Z,12.23
2018-09-13T00:35:28.546Z,11.43
2018-09-13T00:37:56.763Z,15.90
2018-09-13T00:40:24.968Z,12.87
2018-09-13T00:42:53.132Z,11.17
2018-09-13T00:45:21.332Z,11.50
2018-09-13T00:47:49.512Z,13.43
2018-09-13T00:50:17.724Z,10.90
2018-09-13T00:52:46.092Z,11.57
2018-09-13T00:55:14.742Z,13.47
2018-09-13T00:57:42.989Z,14.13
2018-09-13T01:00:11.274Z,12.47
2018-09-13T01:02:39.455Z,13.53
2018-09-13T01:05:07.650Z,11.90
2018-09-13T01:07:35.826Z,12.87
2018-09-13T01:10:04.138Z,11.60
2018-09-13T01:12:32.313Z,8.80
2018-09-13T01:15:00.513Z,10.40
2018-09-13T01:17:28.697Z,9.73
2018-09-13T01:19:56.918Z,10.57
2018-09-13T01:22:25.101Z,11.37
2018-09-13T01:24:54.616Z,10.50
2018-09-13T01:27:23.578Z,8.23
2018-09-13T01:29:51.777Z,9.00
2018-09-13T01:32:20.261Z,7.83
2018-09-13T01:34:48.440Z,10.47
2018-09-13T01:37:16.645Z,12.00
2018-09-13T01:39:44.820Z,12.13
2018-09-13T01:42:13.024Z,10.30
2018-09-13T01:44:41.252Z,8.37
2018-09-13T01:47:09.534Z,9.97
2018-09-13T01:49:37.736Z,11.73
2018-09-13T01:52:06.121Z,14.33
2018-09-13T01:54:34.396Z,10.70
2018-09-13T01:57:02.604Z,9.33
2018-09-13T01:59:30.818Z,9.70
2018-09-13T02:01:59.125Z,8.60
2018-09-13T02:04:27.392Z,10.53
2018-09-13T02:06:55.593Z,8.97
2018-09-13T02:09:23.764Z,12.70
2018-09-13T02:11:51.974Z,7.87
2018-09-13T02:14:20.150Z,10.20
2018-09-13T02:16:48.355Z,9.70
2018-09-13T02:19:16.553Z,8.93
2018-09-13T02:21:44.752Z,11.90
2018-09-13T02:24:12.976Z,8.83
2018-09-13T02:26:41.184Z,10.30
2018-09-13T02:29:09.376Z,13.17
2018-09-13T02:31:38.133Z,10.73
2018-09-13T02:34:06.311Z,11.83
2018-09-13T02:36:34.516Z,13.07
2018-09-13T02:39:02.712Z,13.43
2018-09-13T02:41:30.915Z,11.87
2018-09-13T02:43:59.293Z,12.60
2018-09-13T02:46:27.589Z,12.63
2018-09-13T02:48:55.783Z,13.57
2018-09-13T02:51:23.968Z,10.80
2018-09-13T02:53:52.199Z,9.17
2018-09-13T02:56:20.388Z,9.73
2018-09-13T02:58:48.575Z,9.47
2018-09-13T03:01:16.752Z,12.07
2018-09-13T03:03:44.946Z,7.80
2018-09-13T03:06:13.124Z,9.17
2018-09-13T03:08:41.326Z,8.47
2018-09-13T03:11:09.499Z,9.03
2018-09-13T03:13:37.702Z,11.53
2018-09-13T03:16:06.640Z,9.90
2018-09-13T03:18:34.841Z,12.07
2018-09-13T03:21:03.024Z,13.10
2018-09-13T03:23:31.252Z,11.70
2018-09-13T03:25:59.565Z,11.53
2018-09-13T03:28:27.994Z,10.60
2018-09-13T03:30:56.158Z,8.93
2018-09-13T03:33:24.368Z,10.00
2018-09-13T03:35:52.647Z,11.30
2018-09-13T03:38:20.857Z,9.43
2018-09-13T03:40:49.025Z,11.17
2018-09-13T03:43:17.388Z,16.63
2018-09-13T03:45:45.779Z,14.23
2018-09-13T03:48:14.005Z,17.77
2018-09-13T03:50:42.185Z,19.37
2018-09-13T03:53:10.417Z,18.50
2018-09-13T03:55:38.606Z,21.53
2018-09-13T03:58:06.938Z,17.50
2018-09-13T04:00:35.108Z,11.73
2018-09-13T04:03:03.356Z,13.73
2018-09-13T04:05:31.512Z,13.30
2018-09-13T04:07:59.708Z,21.90
2018-09-13T04:10:27.868Z,18.43
2018-09-13T04:12:56.301Z,18.50
2018-09-13T04:15:24.473Z,18.20
2018-09-13T04:17:52.949Z,15.97
2018-09-13T04:20:21.101Z,19.33
2018-09-13T04:22:49.411Z,17.93
2018-09-13T04:25:17.584Z,16.43
2018-09-13T04:27:46.009Z,16.30
2018-09-13T04:30:14.178Z,20.40
2018-09-13T04:32:42.342Z,23.93
2018-09-13T04:35:10.599Z,18.47
2018-09-13T04:37:38.760Z,17.83
2018-09-13T04:40:07.075Z,17.13
2018-09-13T04:42:35.238Z,16.73
2018-09-13T04:45:03.437Z,12.07
2018-09-13T04:47:31.645Z,13.33
2018-09-13T04:49:59.838Z,13.03
2018-09-13T04:52:28.592Z,16.93
2018-09-13T04:54:56.769Z,14.83
2018-09-13T04:57:24.959Z,10.43
2018-09-13T04:59:53.156Z,11.93
2018-09-13T05:02:21.405Z,10.93
2018-09-13T05:04:49.612Z,12.17
2018-09-13T05:07:18.012Z,13.47
2018-09-13T05:09:46.214Z,13.27
2018-09-13T05:12:14.381Z,11.60
2018-09-13T05:14:42.569Z,12.63
2018-09-13T05:17:10.740Z,15.43
2018-09-13T05:19:38.919Z,14.47
2018-09-13T05:22:07.099Z,15.23
2018-09-13T05:24:35.506Z,15.20
2018-09-13T05:27:03.664Z,17.03
2018-09-13T05:29:31.860Z,18.43
2018-09-13T05:32:00.033Z,17.27
2018-09-13T05:34:28.308Z,18.03
2018-09-13T05:36:56.513Z,15.67
2018-09-13T05:39:24.700Z,11.60
2018-09-13T05:41:52.898Z,13.27
2018-09-13T05:44:21.097Z,10.90
2018-09-13T05:46:49.374Z,13.67
2018-09-13T05:49:17.608Z,11.33
2018-09-13T05:51:45.850Z,17.33
2018-09-13T05:54:14.059Z,11.40
2018-09-13T05:56:42.364Z,11.83
2018-09-13T05:59:10.580Z,17.93
2018-09-13T06:01:38.855Z,12.33
2018-09-13T06:04:07.093Z,12.20
2018-09-13T06:06:35.264Z,15.30
2018-09-13T06:09:03.517Z,15.67
2018-09-13T06:11:31.721Z,15.57
2018-09-13T06:13:59.915Z,12.37
2018-09-13T06:16:28.092Z,8.07
2018-09-13T06:18:56.265Z,12.90
2018-09-13T06:21:24.514Z,13.57
2018-09-13T06:23:52.705Z,17.80
2018-09-13T06:26:20.954Z,13.33
2018-09-13T06:28:49.162Z,16.10
2018-09-13T06:31:17.453Z,13.07
2018-09-13T06:33:45.629Z,15.40
2018-09-13T06:36:13.841Z,17.80
2018-09-13T06:38:41.992Z,18.33
2018-09-13T06:41:10.286Z,16.70
2018-09-13T06:43:38.784Z,16.77
2018-09-13T06:46:06.969Z,16.87
2018-09-13T06:48:35.307Z,12.17
2018-09-13T06:51:03.433Z,15.53
2018-09-13T06:53:31.672Z,11.87
2018-09-13T06:55:59.851Z,13.80
2018-09-13T06:58:28.020Z,14.87
2018-09-13T07:00:56.300Z,14.60
2018-09-13T07:03:24.458Z,14.60
2018-09-13T07:05:52.687Z,11.77
2018-09-13T07:08:21.094Z,13.33
2018-09-13T07:10:49.301Z,12.83
2018-09-13T07:13:17.506Z,17.07
2018-09-13T07:15:45.798Z,14.13
2018-09-13T07:18:13.976Z,16.77
2018-09-13T07:20:42.215Z,12.23
2018-09-13T07:23:10.960Z,9.33
2018-09-13T07:25:39.301Z,10.73
2018-09-13T07:28:07.475Z,13.77
2018-09-13T07:30:35.697Z,13.37
2018-09-13T07:33:03.906Z,14.40
2018-09-13T07:35:32.172Z,16.60
2018-09-13T07:38:00.348Z,18.67
2018-09-13T07:40:28.512Z,17.53
2018-09-13T07:42:56.747Z,17.93
2018-09-13T07:45:24.873Z,22.93
2018-09-13T07:47:53.138Z,17.10
2018-09-13T07:50:21.307Z,15.87
2018-09-13T07:52:49.592Z,16.53
2018-09-13T07:55:17.860Z,15.73
2018-09-13T07:57:46.069Z,18.60
2018-09-13T08:00:14.259Z,20.30
2018-09-13T08:02:42.493Z,16.40
2018-09-13T08:05:10.782Z,14.90
2018-09-13T08:07:38.868Z,16.03
2018-09-13T08:10:07.134Z,15.90
2018-09-13T08:12:35.337Z,20.97
2018-09-13T08:15:03.563Z,16.07
2018-09-13T08:17:31.722Z,18.37
2018-09-13T08:19:59.885Z,20.27
2018-09-13T08:22:28.180Z,22.70
2018-09-13T08:24:56.360Z,22.30
2018-09-13T08:27:24.567Z,25.70
2018-09-13T08:29:52.777Z,29.50
2018-09-13T08:32:20.977Z,21.93
2018-09-13T08:34:49.242Z,25.37
2018-09-13T08:37:17.349Z,23.67
2018-09-13T08:39:45.523Z,21.63
2018-09-13T08:42:13.850Z,22.50
2018-09-13T08:44:42.063Z,23.40
2018-09-13T08:47:10.290Z,19.27
2018-09-13T08:49:38.464Z,19.57
2018-09-13T08:52:06.718Z,17.73
2018-09-13T08:54:34.893Z,17.77
2018-09-13T08:57:03.216Z,19.33
2018-09-13T08:59:31.380Z,20.80
2018-09-13T09:01:59.586Z,14.57
2018-09-13T09:04:27.765Z,13.93
2018-09-13T09:06:56.224Z,13.40
2018-09-13T09:09:24.392Z,15.00
2018-09-13T09:11:52.620Z,19.37
2018-09-13T09:14:20.749Z,15.47
2018-09-13T09:16:49.077Z,14.07
2018-09-13T09:19:17.243Z,14.43
2018-09-13T09:21:45.448Z,14.77
2018-09-13T09:24:13.650Z,14.90
2018-09-13T09:26:42.219Z,15.53
2018-09-13T09:29:10.443Z,11.27
2018-09-13T09:31:38.595Z,14.83
2018-09-13T09:34:06.965Z,11.60
2018-09-13T09:36:35.128Z,12.40
2018-09-13T09:39:04.989Z,11.33
2018-09-13T09:41:33.158Z,12.27
2018-09-13T09:44:01.596Z,9.80
2018-09-13T09:46:29.742Z,12.70
2018-09-13T09:48:57.946Z,11.37
2018-09-13T09:51:26.111Z,14.23
2018-09-13T09:53:54.342Z,11.17
2018-09-13T09:56:22.506Z,12.10
2018-09-13T09:58:50.688Z,12.20
2018-09-13T10:01:26.791Z,9.47
2018-09-13T10:03:55.892Z,9.83
2018-09-13T10:06:24.105Z,11.73
2018-09-13T10:08:52.370Z,11.73
2018-09-13T10:11:20.480Z,11.67
2018-09-13T10:13:48.688Z,13.40
2018-09-13T10:16:22.171Z,9.93
2018-09-13T10:18:54.574Z,13.20
2018-09-13T10:21:28.173Z,9.20
2018-09-13T10:24:01.798Z,10.40
2018-09-13T10:26:36.438Z,11.87
2018-09-13T10:29:10.193Z,12.63
2018-09-13T10:31:43.571Z,10.80
2018-09-13T10:34:17.168Z,13.13
2018-09-13T10:36:50.768Z,18.43
2018-09-13T10:39:24.384Z,19.20
2018-09-13T10:42:03.650Z,17.43
2018-09-13T10:44:38.928Z,16.23
2018-09-13T10:47:12.556Z,21.60
2018-09-13T10:52:22.142Z,19.83
2018-09-13T10:54:50.933Z,17.60
2018-09-13T10:57:24.560Z,17.57
2018-09-13T10:59:52.882Z,16.53
2018-09-13T11:02:21.269Z,19.77
2018-09-13T11:04:49.833Z,22.77
2018-09-13T11:07:17.990Z,24.80
2018-09-13T11:09:48.133Z,27.97
2018-09-13T11:12:16.329Z,21.80
2018-09-13T11:14:55.992Z,23.40
2018-09-13T11:17:25.125Z,25.87
2018-09-13T11:19:55.028Z,25.93
2018-09-13T11:22:23.176Z,27.37
2018-09-13T11:24:52.457Z,24.60
2018-09-13T11:27:20.833Z,20.33
2018-09-13T11:29:49.033Z,17.13
2018-09-13T11:32:17.252Z,17.90
2018-09-13T11:34:45.519Z,17.83
2018-09-13T11:37:14.028Z,16.97
2018-09-13T11:39:42.222Z,18.60
2018-09-13T11:42:10.456Z,14.87
2018-09-13T11:44:38.636Z,24.60
2018-09-13T11:47:07.214Z,22.33
2018-09-13T11:49:35.469Z,22.00
2018-09-13T11:52:03.701Z,22.27
2018-09-13T11:54:31.872Z,25.93
2018-09-13T11:57:00.186Z,22.43
2018-09-13T11:59:28.348Z,24.13
2018-09-13T12:01:56.655Z,25.00
2018-09-13T12:04:24.756Z,21.50
2018-09-13T12:06:53.381Z,26.37
2018-09-13T12:09:21.564Z,22.60
2018-09-13T12:11:49.785Z,24.07
2018-09-13T12:14:17.940Z,24.47
2018-09-13T12:16:46.944Z,21.97
2018-09-13T12:19:15.922Z,21.53
2018-09-13T12:21:47.621Z,19.07
2018-09-13T12:24:16.206Z,22.60
2018-09-13T12:26:44.378Z,27.00
2018-09-13T12:29:14.296Z,26.27
2018-09-13T12:31:42.548Z,21.80
2018-09-13T12:34:10.713Z,18.70
2018-09-13T12:36:39.688Z,25.50
2018-09-13T12:39:09.432Z,22.97
2018-09-13T12:41:37.951Z,23.10
2018-09-13T12:44:06.249Z,24.53
2018-09-13T12:46:34.586Z,25.70
2018-09-13T12:49:02.809Z,25.23
2018-09-13T12:51:31.398Z,22.63
2018-09-13T12:53:59.665Z,22.27
2018-09-13T12:56:27.876Z,23.40
2018-09-13T12:58:57.380Z,24.75
2018-09-13T13:01:25.577Z,22.30
2018-09-13T13:03:59.086Z,18.67
2018-09-13T13:06:27.326Z,20.70
2018-09-13T13:08:56.142Z,22.20
2018-09-13T13:11:24.253Z,20.83
2018-09-13T13:13:53.595Z,15.93
2018-09-13T13:16:21.849Z,18.60
2018-09-13T13:18:50.220Z,19.70
2018-09-13T13:21:18.420Z,18.73
2018-09-13T13:23:48.037Z,14.50
2018-09-13T13:26:16.202Z,16.80
2018-09-13T13:28:44.467Z,16.43
2018-09-13T13:31:12.632Z,18.73
2018-09-13T13:33:44.865Z,17.47
2018-09-13T13:36:13.138Z,18.93
2018-09-13T13:38:41.333Z,14.37
2018-09-13T13:41:09.707Z,16.17
2018-09-13T13:43:37.924Z,16.93
2018-09-13T13:46:06.136Z,19.83
2018-09-13T13:48:34.331Z,16.63
2018-09-13T13:51:02.489Z,16.80
2018-09-13T13:53:30.671Z,16.03
2018-09-13T13:55:58.844Z,16.53
2018-09-13T13:58:27.193Z,15.30
2018-09-13T14:00:55.360Z,14.90
2018-09-13T14:03:23.516Z,13.73
2018-09-13T14:05:51.709Z,13.53
2018-09-13T14:08:20.265Z,14.20
2018-09-13T14:10:48.486Z,13.07
2018-09-13T14:13:16.654Z,10.13
2018-09-13T14:15:45.697Z,11.00
2018-09-13T14:18:14.242Z,13.23
2018-09-13T14:20:42.579Z,12.43
2018-09-13T14:23:10.849Z,12.90
2018-09-13T14:25:39.283Z,11.60
2018-09-13T14:28:09.315Z,11.70
2018-09-13T14:30:40.749Z,11.57
2018-09-13T14:33:10.284Z,11.03
2018-09-13T14:35:38.622Z,11.00
2018-09-13T14:38:06.748Z,9.90
2018-09-13T14:40:35.123Z,11.67
2018-09-13T14:43:03.341Z,10.40
2018-09-13T14:45:31.603Z,10.20
2018-09-13T14:47:59.812Z,10.10
2018-09-13T14:50:28.060Z,10.27
2018-09-13T14:52:56.216Z,10.60
2018-09-13T14:55:25.369Z,8.43
2018-09-13T14:57:53.672Z,7.80
2018-09-13T15:00:22.266Z,9.00
2018-09-13T15:02:50.409Z,9.20
2018-09-13T15:05:18.855Z,8.00
2018-09-13T15:07:47.033Z,8.67
2018-09-13T15:10:15.224Z,8.17
2018-09-13T15:12:45.285Z,8.27
2018-09-13T15:15:15.388Z,9.57
2018-09-13T15:17:43.684Z,8.53
2018-09-13T15:20:12.145Z,7.63
2018-09-13T15:22:40.916Z,8.60
2018-09-13T15:25:09.088Z,8.93
2018-09-13T15:27:37.319Z,7.17
2018-09-13T15:30:05.962Z,7.90
2018-09-13T15:32:34.077Z,7.07
2018-09-13T15:35:02.257Z,7.30
2018-09-13T15:37:30.528Z,8.30
2018-09-13T15:39:58.995Z,7.67
2018-09-13T15:42:27.549Z,7.10
2018-09-13T15:44:55.755Z,8.40
2018-09-13T15:47:23.932Z,7.93
2018-09-13T15:49:52.102Z,7.07
2018-09-13T15:52:20.295Z,6.40
2018-09-13T15:54:48.471Z,6.40
2018-09-13T15:57:16.737Z,6.77
2018-09-13T15:59:46.447Z,8.43
2018-09-13T16:02:14.714Z,7.57
2018-09-13T16:04:42.898Z,8.73
2018-09-13T16:07:11.053Z,8.17
2018-09-13T16:09:39.219Z,8.43
2018-09-13T16:12:07.409Z,7.27
2018-09-13T16:14:35.568Z,6.43
2018-09-13T16:17:03.970Z,6.13
2018-09-13T16:19:32.531Z,6.57
2018-09-13T16:22:00.980Z,6.10
2018-09-13T16:24:29.342Z,7.23
2018-09-13T16:26:57.515Z,6.77
2018-09-13T16:29:25.685Z,6.33
2018-09-13T16:31:54.306Z,6.73
2018-09-13T16:34:22.522Z,5.03
2018-09-13T16:36:58.885Z,3.90
2018-09-13T16:39:32.355Z,5.07
2018-09-13T16:42:06.321Z,6.40
2018-09-13T16:44:39.988Z,5.67
2018-09-13T16:47:13.866Z,5.97
2018-09-13T16:49:42.005Z,5.27
2018-09-13T16:52:10.176Z,4.07
2018-09-13T16:54:39.573Z,3.50
2018-09-13T16:57:08.596Z,2.70
2018-09-13T16:59:37.521Z,3.30
2018-09-13T17:02:05.800Z,2.80
2018-09-13T17:04:34.278Z,3.27
2018-09-13T17:07:02.619Z,2.73
2018-09-13T17:09:30.913Z,3.30
2018-09-13T17:11:59.089Z,2.57
2018-09-13T17:14:27.264Z,2.10
2018-09-13T17:16:55.412Z,2.20
2018-09-13T17:19:23.642Z,2.17
2018-09-13T17:21:51.792Z,3.20
2018-09-13T17:24:19.996Z,2.17
2018-09-13T17:26:48.117Z,2.20
2018-09-13T17:29:16.318Z,3.23
2018-09-13T17:31:44.477Z,2.17
2018-09-13T17:34:12.665Z,1.97
2018-09-13T17:36:41.312Z,1.80
2018-09-13T17:39:10.907Z,1.70
2018-09-13T17:41:39.060Z,1.50
2018-09-13T17:44:07.857Z,1.57
2018-09-13T17:46:35.997Z,1.57
2018-09-13T17:49:04.217Z,1.40
2018-09-13T17:51:32.745Z,1.47
2018-09-13T17:54:01.144Z,1.53
2018-09-13T17:56:29.397Z,1.33
2018-09-13T17:58:57.584Z,1.50
2018-09-13T18:01:25.746Z,1.60
2018-09-13T18:03:53.932Z,1.53
2018-09-13T18:06:22.561Z,1.50
2018-09-13T18:08:50.742Z,1.33
2018-09-13T18:11:18.922Z,1.20
2018-09-13T18:13:47.218Z,1.20
2018-09-13T18:16:15.399Z,1.30
2018-09-13T18:18:44.521Z,1.10
2018-09-13T18:21:12.680Z,1.10
2018-09-13T18:23:41.125Z,1.17
2018-09-13T18:26:09.249Z,1.10
2018-09-13T18:28:37.415Z,1.10
2018-09-13T18:31:05.633Z,1.30
2018-09-13T18:33:33.937Z,1.10
2018-09-13T18:36:02.123Z,0.87
2018-09-13T18:38:30.302Z,0.80
2018-09-13T18:40:58.498Z,1.00
2018-09-13T18:43:26.764Z,0.80
2018-09-13T18:45:54.972Z,1.00
2018-09-13T18:48:23.939Z,0.90
2018-09-13T18:50:52.142Z,0.80
2018-09-13T18:53:20.320Z,0.90
2018-09-13T18:55:48.517Z,0.90
2018-09-13T18:58:16.705Z,1.00
2018-09-13T19:00:44.945Z,1.00
2018-09-13T19:03:13.210Z,0.80
2018-09-13T19:05:41.414Z,0.80
2018-09-13T19:08:09.686Z,1.00
2018-09-13T19:10:37.842Z,1.10
2018-09-13T19:13:06.278Z,1.07
2018-09-13T19:15:34.502Z,0.90
2018-09-13T19:18:02.641Z,0.90
2018-09-13T19:20:30.821Z,0.83
2018-09-13T19:23:00.272Z,0.80
2018-09-13T19:25:28.541Z,1.00
2018-09-13T19:27:56.859Z,1.03
2018-09-13T19:30:25.038Z,1.10
2018-09-13T19:32:53.238Z,1.10
2018-09-13T19:35:21.617Z,1.30
2018-09-13T19:37:49.775Z,1.67
2018-09-13T19:40:17.957Z,0.90
2018-09-13T19:42:46.695Z,1.13
2018-09-13T19:45:14.885Z,1.30
2018-09-13T19:47:43.047Z,1.37
2018-09-13T19:50:11.270Z,1.30
2018-09-13T19:52:39.440Z,1.30
2018-09-13T19:55:07.836Z,2.43
2018-09-13T19:57:35.994Z,1.63
2018-09-13T20:00:04.285Z,1.67
2018-09-13T20:02:32.458Z,2.20
2018-09-13T20:05:00.770Z,1.63
2018-09-13T20:07:28.886Z,1.80
2018-09-13T20:09:57.041Z,1.60
2018-09-13T20:12:25.450Z,1.70
2018-09-13T20:14:53.888Z,2.00
2018-09-13T20:17:22.142Z,2.23
2018-09-13T20:19:50.320Z,2.00
2018-09-13T20:22:18.513Z,2.47
2018-09-13T20:24:46.696Z,2.10
2018-09-13T20:27:14.940Z,1.60
2018-09-13T20:29:43.129Z,1.80
2018-09-13T20:32:11.563Z,1.97
2018-09-13T20:34:39.729Z,1.93
2018-09-13T20:37:07.901Z,1.90
2018-09-13T20:39:36.056Z,1.63
2018-09-13T20:42:04.240Z,2.00
2018-09-13T20:44:32.399Z,1.80
2018-09-13T20:47:00.586Z,2.30
2018-09-13T20:49:28.777Z,2.37
2018-09-13T20:51:57.108Z,3.10
2018-09-13T20:54:25.268Z,2.53
2018-09-13T20:56:53.448Z,2.37
2018-09-13T20:59:21.612Z,2.17
2018-09-13T21:01:49.795Z,2.40
2018-09-13T21:04:17.961Z,2.47
2018-09-13T21:06:46.169Z,2.40
2018-09-13T21:09:14.341Z,2.50
2018-09-13T21:11:42.523Z,2.70
2018-09-13T21:14:10.699Z,2.23
2018-09-13T21:16:38.881Z,2.47
2018-09-13T21:19:07.133Z,2.20
2018-09-13T21:21:35.318Z,3.20
2018-09-13T21:24:04.327Z,3.50
2018-09-13T21:26:32.459Z,2.90
2018-09-13T21:29:00.660Z,4.10
2018-09-13T21:31:28.816Z,2.80
2018-09-13T21:33:57.012Z,3.10
2018-09-13T21:36:25.209Z,3.60
2018-09-13T21:38:53.401Z,3.30
2018-09-13T21:41:21.559Z,2.60
2018-09-13T21:43:50.006Z,2.70
2018-09-13T21:46:18.170Z,5.07
2018-09-13T21:48:46.369Z,3.37
2018-09-13T21:51:14.581Z,2.40
2018-09-13T21:53:42.769Z,2.67
2018-09-13T21:56:10.943Z,2.93
2018-09-13T21:58:39.305Z,3.10
2018-09-13T22:01:07.690Z,2.80
2018-09-13T22:03:35.869Z,4.40
2018-09-13T22:06:04.172Z,4.00
2018-09-13T22:08:32.359Z,3.33
2018-09-13T22:11:00.513Z,3.03
2018-09-13T22:13:31.040Z,2.57
2018-09-13T22:15:59.518Z,3.50
2018-09-13T22:18:27.719Z,2.83
2018-09-13T22:20:55.990Z,3.10
2018-09-13T22:23:24.196Z,2.93
2018-09-13T22:25:52.393Z,3.00
2018-09-13T22:28:20.587Z,2.80
2018-09-13T22:30:48.732Z,2.97
2018-09-13T22:33:17.421Z,2.83
2018-09-13T22:35:45.629Z,2.87
2018-09-13T22:38:13.813Z,2.13
2018-09-13T22:40:41.971Z,2.70
2018-09-13T22:43:10.145Z,3.50
2018-09-13T22:45:38.432Z,2.90
2018-09-13T22:48:06.369Z,2.80
2018-09-13T22:50:34.541Z,2.77
2018-09-13T22:53:02.727Z,3.00
2018-09-13T22:55:30.879Z,3.20
2018-09-13T22:57:59.049Z,2.80
2018-09-13T23:00:27.220Z,2.30
2018-09-13T23:02:55.378Z,2.20
2018-09-13T23:05:23.583Z,2.70
2018-09-13T23:07:51.705Z,3.20
2018-09-13T23:10:19.888Z,3.07
2018-09-13T23:12:48.880Z,2.47
2018-09-13T23:15:17.060Z,2.30
2018-09-13T23:17:45.225Z,3.03
2018-09-13T23:20:13.700Z,2.70
2018-09-13T23:22:41.873Z,2.07
2018-09-13T23:25:10.046Z,2.20
2018-09-13T23:27:38.264Z,2.00
2018-09-13T23:30:06.822Z,1.90
2018-09-13T23:32:34.981Z,2.70
2018-09-13T23:35:03.156Z,3.10
2018-09-13T23:37:31.320Z,2.93
2018-09-13T23:39:59.719Z,2.40
2018-09-13T23:42:27.676Z,3.33
2018-09-13T23:44:55.857Z,5.40
2018-09-13T23:47:24.097Z,4.67
2018-09-13T23:49:52.305Z,4.20
2018-09-13T23:52:20.462Z,4.30
2018-09-13T23:54:48.638Z,3.30
2018-09-13T23:57:16.804Z,5.17
2018-09-13T23:59:44.979Z,4.17
